Time;durP1;ratioP1;P1;durP2;ratioP2;P2;SDS_P1;SDS_P2;PMS_P1;PMS_P2;Temp;Humidity;BMP_temperature;BMP_pressure;BME280_temperature;BME280_humidity;BME280_pressure;Samples;Min_cycle;Max_cycle;Signal;HPM_P1;HPM_P2
2022/11/29 00:01:38;;;;;;;17.70;12.27;;;;;;;5.98;85.42;100639.69;5064461;28;20701;-73
2022/11/29 00:04:06;;;;;;;20.27;13.93;;;;;;;5.99;85.31;100643.22;5069314;28;20205;-73
2022/11/29 00:06:35;;;;;;;14.67;10.77;;;;;;;5.96;85.48;100638.91;5059582;28;20250;-73
2022/11/29 00:09:06;;;;;;;14.60;10.67;;;;;;;5.93;85.46;100634.63;5057548;28;20241;-74
2022/11/29 00:14:20;;;;;;;15.33;11.00;;;;;;;5.93;85.80;100646.97;5065917;28;20571;-73
2022/11/29 00:16:51;;;;;;;15.57;10.67;;;;;;;5.93;85.94;100644.31;5066040;28;20228;-73
2022/11/29 00:19:18;;;;;;;19.20;11.93;;;;;;;5.90;86.06;100647.13;5059037;28;20370;-74
2022/11/29 00:21:44;;;;;;;16.43;11.77;;;;;;;5.91;86.35;100647.03;5063035;28;20209;-73
2022/11/29 00:24:11;;;;;;;16.33;11.40;;;;;;;5.91;86.04;100656.78;5060065;28;20207;-73
2022/11/29 00:26:37;;;;;;;16.53;10.87;;;;;;;5.92;86.22;100650.53;5063458;28;20207;-73
2022/11/29 00:29:04;;;;;;;15.57;11.70;;;;;;;5.92;86.55;100645.25;5061270;28;20630;-73
2022/11/29 00:31:33;;;;;;;19.27;12.10;;;;;;;5.93;86.56;100646.97;5067086;28;20197;-74
2022/11/29 00:34:01;;;;;;;18.83;12.13;;;;;;;5.94;86.51;100646.03;5059704;28;20236;-74
2022/11/29 00:36:28;;;;;;;17.07;11.77;;;;;;;5.95;86.91;100645.13;5055711;28;20261;-72
2022/11/29 00:38:55;;;;;;;18.67;11.97;;;;;;;5.96;86.60;100640.69;5051212;28;20237;-73
2022/11/29 00:41:21;;;;;;;15.03;11.67;;;;;;;5.96;86.78;100641.56;5062964;28;20213;-74
2022/11/29 00:43:48;;;;;;;18.80;11.63;;;;;;;5.96;86.87;100641.56;5061939;28;20327;-74
2022/11/29 00:46:14;;;;;;;20.23;12.00;;;;;;;5.98;86.89;100649.41;5065708;28;20209;-74
2022/11/29 00:48:42;;;;;;;18.30;12.57;;;;;;;5.98;86.80;100637.06;5068646;28;20237;-73
2022/11/29 00:51:09;;;;;;;18.07;12.03;;;;;;;5.97;86.95;100640.63;5051022;28;20560;-73
2022/11/29 00:53:36;;;;;;;17.60;11.40;;;;;;;5.98;87.19;100637.06;5064320;28;20204;-72
2022/11/29 00:56:04;;;;;;;16.97;12.70;;;;;;;5.99;86.89;100640.56;5058059;28;20223;-74
2022/11/29 00:58:31;;;;;;;17.47;11.07;;;;;;;5.97;86.98;100630.06;5069038;28;20228;-73
2022/11/29 01:00:57;;;;;;;15.30;11.63;;;;;;;5.97;87.22;100638.00;5058105;28;20217;-73
2022/11/29 01:03:24;;;;;;;15.53;11.90;;;;;;;5.97;87.29;100640.63;5065383;28;20205;-73
2022/11/29 01:05:52;;;;;;;16.50;11.83;;;;;;;5.98;87.00;100641.50;5058144;28;20210;-74
2022/11/29 01:08:19;;;;;;;17.57;11.57;;;;;;;5.98;87.08;100630.91;5059967;28;20773;-74
2022/11/29 01:10:45;;;;;;;17.03;12.40;;;;;;;5.98;87.33;100638.84;5063665;28;20211;-73
2022/11/29 01:13:12;;;;;;;17.47;12.20;;;;;;;5.98;87.24;100644.13;5066084;28;20626;-74
2022/11/29 01:15:38;;;;;;;15.70;11.50;;;;;;;5.98;87.35;100645.00;5055097;28;20212;-74
2022/11/29 01:18:05;;;;;;;17.60;11.40;;;;;;;5.98;87.41;100650.28;5063118;28;20225;-73
2022/11/29 01:20:31;;;;;;;15.23;11.17;;;;;;;5.98;87.43;100647.63;5061048;28;20201;-74
2022/11/29 01:22:59;;;;;;;17.00;11.57;;;;;;;5.98;87.15;100652.06;5062429;28;20234;-73
2022/11/29 01:25:26;;;;;;;15.80;10.67;;;;;;;5.97;87.37;100653.84;5061887;28;20633;-73
2022/11/29 01:27:52;;;;;;;16.10;11.23;;;;;;;5.96;87.23;100662.69;5059785;28;20217;-73
2022/11/29 01:30:19;;;;;;;20.63;12.47;;;;;;;5.93;87.46;100666.34;5054161;28;20209;-73
2022/11/29 01:32:46;;;;;;;14.90;10.73;;;;;;;5.91;87.39;100664.72;5057167;28;20215;-73
2022/11/29 01:35:12;;;;;;;15.33;11.17;;;;;;;5.90;87.81;100665.63;5059930;28;20208;-73
2022/11/29 01:37:38;;;;;;;15.03;10.37;;;;;;;5.86;88.03;100671.94;5056255;28;20233;-73
2022/11/29 01:40:08;;;;;;;15.43;10.87;;;;;;;5.82;87.78;100668.56;5059727;28;20220;-73
2022/11/29 01:42:34;;;;;;;13.97;11.03;;;;;;;5.81;88.03;100668.63;5057823;28;20220;-74
2022/11/29 01:45:06;;;;;;;16.67;11.33;;;;;;;5.81;87.92;100666.00;5053273;28;20209;-74
2022/11/29 01:47:33;;;;;;;17.57;11.80;;;;;;;5.80;88.34;100661.63;5057657;28;20315;-74
2022/11/29 01:50:02;;;;;;;13.83;10.47;;;;;;;5.80;88.27;100661.63;5057780;28;20197;-74
2022/11/29 01:52:32;;;;;;;14.13;10.83;;;;;;;5.79;88.55;100658.13;5057083;28;20209;-74
2022/11/29 01:55:03;;;;;;;15.63;11.30;;;;;;;5.79;88.93;100663.41;5065579;28;20200;-73
2022/11/29 01:57:34;;;;;;;16.77;10.93;;;;;;;5.78;88.97;100656.41;5059397;28;20229;-73
2022/11/29 02:00:07;;;;;;;18.63;12.17;;;;;;;5.76;88.83;100673.25;5055316;28;20201;-73
2022/11/29 02:02:36;;;;;;;14.70;11.43;;;;;;;5.73;88.65;100668.94;5055921;28;20194;-74
2022/11/29 02:05:04;;;;;;;17.13;10.73;;;;;;;5.72;88.91;100675.19;5060748;28;20202;-73
2022/11/29 02:07:30;;;;;;;16.00;11.30;;;;;;;5.71;89.07;100664.69;5061840;28;20232;-72
2022/11/29 02:09:57;;;;;;;16.33;11.37;;;;;;;5.70;89.14;100671.75;5065263;28;20205;-73
2022/11/29 02:12:35;;;;;;;16.50;10.97;;;;;;;5.69;89.15;100672.69;5062531;28;20197;-73
2022/11/29 02:15:36;;;;;;;16.13;10.77;;;;;;;5.69;89.63;100661.25;5054551;28;20212;-73
2022/11/29 02:18:06;;;;;;;15.40;11.47;;;;;;;5.69;90.03;100664.75;5060394;28;20225;-73
2022/11/29 02:21:00;;;;;;;17.10;11.77;;;;;;;5.69;89.78;100661.25;5060333;28;20578;-73
2022/11/29 02:23:54;;;;;;;15.63;11.20;;;;;;;5.69;89.70;100670.03;5062043;28;20209;-72
2022/11/29 02:26:36;;;;;;;18.90;12.03;;;;;;;5.69;89.82;100670.03;5042526;28;20201;-74
2022/11/29 02:29:37;;;;;;;18.77;11.30;;;;;;;5.70;89.76;100662.97;5058353;28;20216;-73
2022/11/29 02:32:33;;;;;;;15.13;11.97;;;;;;;5.69;90.16;100670.03;5051219;28;20202;-73
2022/11/29 02:35:17;;;;;;;15.97;11.50;;;;;;;5.69;90.00;100671.81;5044270;28;20590;-73
2022/11/29 02:38:04;;;;;;;16.80;12.17;;;;;;;5.70;90.08;100678.81;5059908;28;20232;-73
2022/11/29 02:40:55;;;;;;;17.67;11.60;;;;;;;5.69;90.40;100679.75;5060313;28;20216;-73
2022/11/29 02:43:43;;;;;;;15.37;11.30;;;;;;;5.69;90.17;100677.09;5059632;28;20197;-74
2022/11/29 02:46:23;;;;;;;18.10;12.03;;;;;;;5.68;90.18;100680.66;5063146;28;20220;-73
2022/11/29 02:49:00;;;;;;;15.43;11.27;;;;;;;5.68;90.79;100684.16;5056789;28;20244;-74
2022/11/29 02:51:37;;;;;;;15.80;11.97;;;;;;;5.67;90.68;100684.22;5056558;28;20200;-74
2022/11/29 02:54:10;;;;;;;18.97;12.60;;;;;;;5.66;90.42;100687.78;5062939;28;20200;-73
2022/11/29 02:56:43;;;;;;;15.13;10.67;;;;;;;5.65;90.79;100686.94;5052891;28;20583;-74
2022/11/29 02:59:16;;;;;;;15.20;11.03;;;;;;;5.62;90.46;100687.06;5051580;28;20717;-73
2022/11/29 03:01:53;;;;;;;17.97;11.73;;;;;;;5.61;90.47;100689.75;5060360;28;20198;-74
2022/11/29 03:04:28;;;;;;;15.20;10.67;;;;;;;5.60;90.50;100694.19;5057364;28;20197;-74
2022/11/29 03:07:02;;;;;;;16.03;10.57;;;;;;;5.59;90.73;100693.31;5048060;28;20712;-73
2022/11/29 03:09:36;;;;;;;16.13;11.23;;;;;;;5.56;90.89;100693.44;5064554;28;20258;-73
2022/11/29 03:12:12;;;;;;;15.93;11.93;;;;;;;5.57;90.97;100695.16;5061973;28;20204;-73
2022/11/29 03:14:56;;;;;;;16.93;12.07;;;;;;;5.57;90.90;100699.59;5063849;28;20197;-74
2022/11/29 03:17:32;;;;;;;18.17;11.77;;;;;;;5.58;91.44;100696.03;5056613;28;20220;-73
2022/11/29 03:20:16;;;;;;;14.77;11.23;;;;;;;5.59;90.87;100697.75;5066977;28;20207;-72
2022/11/29 03:22:51;;;;;;;14.90;10.53;;;;;;;5.58;90.98;100699.53;5063361;28;20193;-73
2022/11/29 03:25:24;;;;;;;15.60;10.33;;;;;;;5.57;90.99;100695.16;5058328;28;20197;-73
2022/11/29 03:28:00;;;;;;;15.83;11.57;;;;;;;5.57;91.30;100695.16;5067015;28;20228;-73
2022/11/29 03:30:29;;;;;;;15.43;10.33;;;;;;;5.57;91.16;100694.31;5062623;28;20203;-73
2022/11/29 03:33:05;;;;;;;18.23;11.90;;;;;;;5.56;91.36;100693.44;5066498;28;20301;-72
2022/11/29 03:35:40;;;;;;;15.93;10.73;;;;;;;5.56;91.59;100703.16;5065327;28;20197;-73
2022/11/29 03:38:16;;;;;;;15.93;10.87;;;;;;;5.56;91.42;100698.72;5061635;28;20229;-74
2022/11/29 03:40:50;;;;;;;15.63;11.20;;;;;;;5.55;91.23;100702.28;5059824;28;20189;-74
2022/11/29 03:43:22;;;;;;;17.67;11.37;;;;;;;5.56;91.48;100709.31;5059496;28;20228;-73
2022/11/29 03:45:56;;;;;;;15.37;11.50;;;;;;;5.55;91.57;100712.84;5061485;28;20686;-74
2022/11/29 03:48:31;;;;;;;13.57;10.27;;;;;;;5.54;91.69;100708.53;5066449;28;20247;-74
2022/11/29 03:51:03;;;;;;;15.77;10.63;;;;;;;5.53;91.67;100714.75;5078651;22;20233;-71
2022/11/29 03:53:36;;;;;;;17.57;11.00;;;;;;;5.53;91.91;100709.44;5066982;28;20572;-70
2022/11/29 03:56:21;;;;;;;15.07;10.87;;;;;;;5.54;91.65;100716.47;5070189;28;20200;-71
2022/11/29 03:58:55;;;;;;;16.87;11.47;;;;;;;5.54;91.95;100721.75;5062260;28;20205;-71
2022/11/29 04:01:55;;;;;;;15.77;11.47;;;;;;;5.54;92.20;100721.75;5041342;28;20546;-69
2022/11/29 04:04:52;;;;;;;16.73;11.30;;;;;;;5.53;92.13;100730.59;5035584;28;20202;-70
2022/11/29 04:07:34;;;;;;;17.10;12.10;;;;;;;5.52;91.81;100723.59;5045504;28;20209;-70
2022/11/29 04:10:17;;;;;;;15.17;11.37;;;;;;;5.52;91.87;100728.88;5051511;28;20228;-69
2022/11/29 04:13:34;;;;;;;16.83;11.80;;;;;;;5.52;91.98;100735.94;5040482;28;20572;-72
2022/11/29 04:16:21;;;;;;;15.33;11.47;;;;;;;5.51;92.16;100735.06;5040701;28;20248;-68
2022/11/29 04:19:15;;;;;;;18.53;12.50;;;;;;;5.50;92.06;100730.72;5047266;28;20229;-71
2022/11/29 04:22:09;;;;;;;12.60;9.97;;;;;;;5.49;92.06;100731.63;5039866;28;20204;-70
2022/11/29 04:25:01;;;;;;;15.13;11.50;;;;;;;5.50;92.30;100743.06;5034406;28;20209;-70
2022/11/29 04:27:48;;;;;;;15.03;11.07;;;;;;;5.48;92.44;100751.03;5039538;28;20214;-71
2022/11/29 04:30:20;;;;;;;18.17;11.93;;;;;;;5.48;92.43;100743.13;5037972;28;20363;-71
2022/11/29 04:33:23;;;;;;;15.53;10.93;;;;;;;5.48;92.39;100753.69;5040183;28;20210;-71
2022/11/29 04:36:18;;;;;;;17.63;11.07;;;;;;;5.47;92.39;100749.31;5042574;28;20732;-71
2022/11/29 04:39:08;;;;;;;18.50;11.40;;;;;;;5.47;92.58;100756.38;5037028;28;20214;-71
2022/11/29 04:41:46;;;;;;;18.60;10.90;;;;;;;5.47;92.70;100759.03;5038993;28;20201;-69
2022/11/29 04:44:39;;;;;;;17.93;12.20;;;;;;;5.46;92.83;100754.66;5048399;28;20197;-69
2022/11/29 04:47:27;;;;;;;16.50;10.97;;;;;;;5.47;92.81;100757.25;5033170;28;20207;-70
2022/11/29 04:50:05;;;;;;;17.10;11.83;;;;;;;5.46;92.95;100754.66;5045742;28;20714;-70
2022/11/29 04:52:47;;;;;;;16.83;11.90;;;;;;;5.45;92.99;100769.66;5031440;28;20790;-71
2022/11/29 04:55:22;;;;;;;20.90;12.70;;;;;;;5.44;93.10;100773.22;5049399;28;20201;-70
2022/11/29 04:57:55;;;;;;;18.67;12.50;;;;;;;5.44;93.29;100775.84;5041628;28;20253;-69
2022/11/29 05:00:24;;;;;;;16.43;11.20;;;;;;;5.45;93.20;100785.50;5052285;28;20217;-71
2022/11/29 05:02:56;;;;;;;18.73;12.57;;;;;;;5.45;92.89;100780.22;5040329;28;20210;-71
2022/11/29 05:05:32;;;;;;;16.70;12.63;;;;;;;5.45;93.60;100788.13;5045579;28;20602;-70
2022/11/29 05:08:15;;;;;;;13.97;11.27;;;;;;;5.45;93.57;100785.50;5039609;28;20193;-72
2022/11/29 05:10:59;;;;;;;16.17;11.57;;;;;;;5.46;93.66;100795.16;5044442;28;20217;-69
2022/11/29 05:13:33;;;;;;;16.33;11.43;;;;;;;5.46;93.47;100789.84;5039348;28;20602;-70
2022/11/29 05:16:15;;;;;;;16.27;11.27;;;;;;;5.46;93.46;100792.50;5033961;28;20212;-71
2022/11/29 05:18:58;;;;;;;17.47;11.67;;;;;;;5.46;93.55;100796.94;5036947;28;20223;-69
2022/11/29 05:21:31;;;;;;;16.33;11.47;;;;;;;5.44;93.60;100793.47;5032297;28;20790;-69
2022/11/29 05:24:08;;;;;;;17.73;11.47;;;;;;;5.42;93.52;100795.31;5034233;28;20209;-71
2022/11/29 05:26:43;;;;;;;18.80;11.70;;;;;;;5.42;93.63;100792.69;5037866;28;20198;-70
2022/11/29 05:29:14;;;;;;;16.03;11.03;;;;;;;5.41;93.99;100797.09;5038747;28;20712;-70
2022/11/29 05:31:55;;;;;;;17.63;12.13;;;;;;;5.40;93.52;100802.44;5033060;28;20584;-71
2022/11/29 05:34:31;;;;;;;17.17;11.47;;;;;;;5.39;93.57;100817.44;5038892;28;20253;-70
2022/11/29 05:37:04;;;;;;;19.70;12.20;;;;;;;5.37;93.50;100803.44;5040052;28;20197;-70
2022/11/29 05:39:38;;;;;;;16.17;11.10;;;;;;;5.37;93.45;100813.16;5040491;28;20233;-68
2022/11/29 05:42:17;;;;;;;14.87;11.33;;;;;;;5.37;93.63;100814.00;5040550;28;20551;-70
2022/11/29 05:44:47;;;;;;;14.97;11.90;;;;;;;5.37;93.62;100821.06;5034398;28;20577;-70
2022/11/29 05:47:22;;;;;;;25.13;14.30;;;;;;;5.36;93.70;100827.28;5028549;28;20213;-70
2022/11/29 05:49:58;;;;;;;26.20;15.97;;;;;;;5.36;93.74;100833.41;5038495;28;20236;-71
2022/11/29 05:52:30;;;;;;;30.43;19.30;;;;;;;5.37;93.81;100831.63;5043275;28;20212;-71
2022/11/29 05:55:09;;;;;;;38.53;22.87;;;;;;;5.36;94.10;100835.19;5034258;28;20202;-70
2022/11/29 05:57:43;;;;;;;45.43;26.23;;;;;;;5.36;93.86;100828.13;5034343;28;20209;-70
2022/11/29 06:00:11;;;;;;;45.43;27.03;;;;;;;5.36;94.48;100828.13;5034874;28;20228;-69
2022/11/29 06:02:51;;;;;;;41.83;24.90;;;;;;;5.38;94.18;100835.97;5037669;28;20205;-69
2022/11/29 06:05:26;;;;;;;34.73;21.00;;;;;;;5.39;94.06;100832.41;5040127;28;20201;-69
2022/11/29 06:07:58;;;;;;;29.20;19.60;;;;;;;5.39;94.22;100845.63;5035104;28;20609;-69
2022/11/29 06:10:31;;;;;;;21.07;13.70;;;;;;;5.40;94.23;100845.56;5040110;28;20233;-70
2022/11/29 06:13:09;;;;;;;18.97;12.73;;;;;;;5.41;94.23;100849.94;5042558;28;20201;-69
2022/11/29 06:16:07;;;;;;;17.47;12.30;;;;;;;5.42;94.40;100848.16;5034909;28;20202;-69
2022/11/29 06:19:10;;;;;;;22.07;11.77;;;;;;;5.42;94.25;100853.44;5037716;28;20222;-69
2022/11/29 06:21:45;;;;;;;16.50;12.00;;;;;;;5.41;94.45;100847.28;5037255;28;20205;-72
2022/11/29 06:24:29;;;;;;;18.73;11.60;;;;;;;5.43;94.34;100852.50;5045064;28;20201;-72
2022/11/29 06:27:17;;;;;;;17.77;11.93;;;;;;;5.45;94.35;100851.53;5043187;28;20264;-72
2022/11/29 06:29:53;;;;;;;18.40;11.83;;;;;;;5.47;94.53;100854.13;5036081;28;20225;-71
2022/11/29 06:32:26;;;;;;;17.53;11.70;;;;;;;5.47;94.38;100854.97;5040969;28;20197;-71
2022/11/29 06:34:59;;;;;;;16.00;11.47;;;;;;;5.48;94.37;100854.06;5047722;28;20641;-71
2022/11/29 06:37:31;;;;;;;18.50;11.30;;;;;;;5.49;94.60;100853.13;5049095;28;20217;-71
2022/11/29 06:39:58;;;;;;;19.80;12.37;;;;;;;5.49;94.51;100869.00;5038566;28;20242;-69
2022/11/29 06:42:24;;;;;;;18.73;12.27;;;;;;;5.51;94.59;100869.78;5044648;28;20201;-70
2022/11/29 06:44:51;;;;;;;17.50;12.63;;;;;;;5.53;94.76;100872.38;5038470;28;20213;-70
2022/11/29 06:47:26;;;;;;;18.40;12.63;;;;;;;5.54;94.86;100869.69;5045616;28;20216;-70
2022/11/29 06:49:59;;;;;;;18.50;12.43;;;;;;;5.55;94.74;100873.19;5047148;28;20244;-69
2022/11/29 06:52:37;;;;;;;18.17;12.23;;;;;;;5.56;94.93;100873.09;5045122;28;20204;-69
2022/11/29 06:55:13;;;;;;;16.57;12.97;;;;;;;5.61;95.22;100880.00;5047678;28;20205;-70
2022/11/29 06:57:54;;;;;;;19.70;12.27;;;;;;;5.65;95.54;100876.31;5046170;28;20220;-69
2022/11/29 07:00:25;;;;;;;17.97;12.10;;;;;;;5.66;95.25;100888.59;5035872;28;20225;-70
2022/11/29 07:03:10;;;;;;;20.80;12.83;;;;;;;5.70;95.56;100887.56;5038202;28;20295;-69
2022/11/29 07:05:37;;;;;;;19.57;12.60;;;;;;;5.74;95.79;100881.22;5041855;28;20198;-69
2022/11/29 07:08:10;;;;;;;20.50;12.13;;;;;;;5.76;96.01;100879.38;5039024;28;20203;-69
2022/11/29 07:10:39;;;;;;;17.17;12.40;;;;;;;5.80;95.65;100887.13;5050494;28;20220;-69
2022/11/29 07:13:06;;;;;;;17.20;12.27;;;;;;;5.82;95.67;100895.00;5038689;28;20212;-69
2022/11/29 07:15:33;;;;;;;17.67;11.77;;;;;;;5.85;95.47;100892.25;5039067;28;20672;-75
2022/11/29 07:18:11;;;;;;;16.30;12.00;;;;;;;5.87;95.35;100896.56;5046010;28;20694;-75
2022/11/29 07:20:47;;;;;;;15.73;11.37;;;;;;;5.88;95.36;100892.13;5051424;28;20238;-75
2022/11/29 07:23:22;;;;;;;19.63;12.13;;;;;;;5.90;94.78;100900.88;5043710;28;20196;-74
2022/11/29 07:25:56;;;;;;;19.33;12.30;;;;;;;5.90;94.99;100893.81;5045483;28;20205;-74
2022/11/29 07:28:39;;;;;;;20.40;12.33;;;;;;;5.91;94.83;100902.63;5043346;28;20643;-74
2022/11/29 07:31:11;;;;;;;16.10;11.27;;;;;;;5.92;94.29;100914.88;5047965;28;20241;-74
2022/11/29 07:33:49;;;;;;;18.73;12.47;;;;;;;5.90;93.80;100907.03;5043769;28;20217;-74
2022/11/29 07:36:27;;;;;;;20.83;12.20;;;;;;;5.89;93.72;100917.66;5048351;28;20197;-74
2022/11/29 07:39:03;;;;;;;18.27;12.10;;;;;;;5.89;93.27;100912.38;5052509;28;20222;-74
2022/11/29 07:41:42;;;;;;;16.43;11.50;;;;;;;5.90;93.79;100914.09;5057837;28;20684;-74
2022/11/29 07:44:16;;;;;;;19.43;12.63;;;;;;;5.89;93.46;100921.19;5046056;28;20516;-79
2022/11/29 07:46:43;;;;;;;19.47;13.17;;;;;;;5.89;93.28;100922.97;5049118;28;20671;-74
2022/11/29 07:49:10;;;;;;;16.70;11.63;;;;;;;5.88;93.37;100930.03;5059676;28;20197;-74
2022/11/29 07:51:37;;;;;;;22.53;12.13;;;;;;;5.85;93.29;100916.88;5049328;28;20687;-74
2022/11/29 07:54:05;;;;;;;20.80;13.73;;;;;;;5.86;93.17;100925.69;5059597;28;20296;-74
2022/11/29 07:56:31;;;;;;;20.47;12.87;;;;;;;5.87;93.30;100922.97;5052061;28;20202;-74
2022/11/29 07:58:58;;;;;;;18.60;12.47;;;;;;;5.91;93.42;100934.34;5045316;28;20410;-73
2022/11/29 08:01:24;;;;;;;19.97;12.70;;;;;;;5.92;93.41;100933.38;5062053;28;20201;-73
2022/11/29 08:03:51;;;;;;;21.67;12.27;;;;;;;5.93;93.30;100932.47;5055420;28;20209;-74
2022/11/29 08:06:24;;;;;;;22.43;12.43;;;;;;;5.93;93.33;100940.38;5051729;28;20341;-75
2022/11/29 08:08:50;;;;;;;18.17;12.33;;;;;;;5.94;93.21;100936.81;5058613;28;20204;-74
2022/11/29 08:11:18;;;;;;;16.13;11.23;;;;;;;5.95;93.35;100941.19;5057689;28;20220;-75
2022/11/29 08:13:44;;;;;;;20.27;13.13;;;;;;;5.97;93.17;100941.13;5058827;28;20213;-74
2022/11/29 08:16:15;;;;;;;22.20;12.67;;;;;;;5.99;93.06;100952.53;5052978;28;20208;-74
2022/11/29 08:18:42;;;;;;;17.80;12.57;;;;;;;6.01;93.05;100942.75;5057756;28;20715;-74
2022/11/29 08:21:08;;;;;;;19.33;12.83;;;;;;;6.02;93.23;100945.34;5045558;28;20255;-74
2022/11/29 08:23:35;;;;;;;18.20;12.77;;;;;;;6.03;93.10;100952.34;5054592;28;20208;-72
2022/11/29 08:26:01;;;;;;;25.13;13.20;;;;;;;6.05;92.69;100947.84;5050249;28;20221;-74
2022/11/29 08:28:29;;;;;;;18.80;12.67;;;;;;;6.05;92.57;100955.78;5053107;28;20194;-74
2022/11/29 08:31:00;;;;;;;21.70;13.23;;;;;;;6.06;92.42;100961.94;5058956;28;20605;-74
2022/11/29 08:33:27;;;;;;;20.27;13.53;;;;;;;6.04;92.54;100961.13;5059191;28;20211;-74
2022/11/29 08:35:53;;;;;;;21.43;13.00;;;;;;;6.03;92.41;100962.91;5050304;28;20210;-74
2022/11/29 08:38:19;;;;;;;19.13;12.63;;;;;;;6.03;92.39;100957.63;5051077;28;20679;-74
2022/11/29 08:40:46;;;;;;;31.60;14.27;;;;;;;6.03;92.49;100960.28;5044352;28;20229;-74
2022/11/29 08:43:12;;;;;;;20.07;14.20;;;;;;;6.04;92.17;100964.66;5055574;28;20208;-73
2022/11/29 08:45:40;;;;;;;23.10;13.73;;;;;;;6.04;92.38;100971.72;5046118;28;20205;-73
2022/11/29 08:48:07;;;;;;;20.40;13.13;;;;;;;6.02;92.28;100971.78;5055519;28;20193;-74
2022/11/29 08:50:33;;;;;;;18.20;12.90;;;;;;;6.02;92.44;100968.25;5054796;28;20243;-75
2022/11/29 08:55:45;;;;;;;19.40;13.80;;;;;;;6.02;92.23;100973.56;5052473;28;20217;-74
2022/11/29 08:58:13;;;;;;;17.63;12.30;;;;;;;6.00;92.23;100968.31;5051797;28;20228;-75
2022/11/29 09:00:45;;;;;;;19.70;13.60;;;;;;;6.01;92.29;100985.06;5059041;28;20315;-74
2022/11/29 09:05:56;;;;;;;16.57;11.63;;;;;;;5.98;92.23;100986.03;5048263;28;20208;-74
2022/11/29 09:08:22;;;;;;;21.87;13.40;;;;;;;5.97;91.86;100994.00;5060409;28;20584;-75
2022/11/29 09:10:50;;;;;;;17.47;12.70;;;;;;;5.97;92.18;100994.00;5058305;28;20236;-75
2022/11/29 09:13:16;;;;;;;21.83;14.07;;;;;;;5.96;92.25;100992.28;5057975;28;20205;-75
2022/11/29 09:15:44;;;;;;;21.33;14.07;;;;;;;5.95;92.36;100999.34;5059348;28;20201;-75
2022/11/29 09:18:11;;;;;;;20.63;14.13;;;;;;;5.96;92.49;100993.16;5046473;28;20264;-74
2022/11/29 09:20:38;;;;;;;21.40;13.33;;;;;;;5.97;92.24;100994.88;5054325;28;20229;-74
2022/11/29 09:23:04;;;;;;;18.50;13.70;;;;;;;5.98;92.13;101001.03;5050037;28;20502;-74
2022/11/29 09:25:31;;;;;;;20.43;13.30;;;;;;;5.99;92.16;101000.09;5054370;28;20210;-73
2022/11/29 09:28:00;;;;;;;17.60;13.43;;;;;;;5.99;92.05;101000.97;5047846;28;20221;-74
2022/11/29 09:30:28;;;;;;;20.57;13.73;;;;;;;5.97;92.30;101000.16;5039156;28;20228;-74
2022/11/29 09:32:56;;;;;;;23.57;13.93;;;;;;;5.97;92.07;101002.81;5056082;28;20213;-74
2022/11/29 09:35:23;;;;;;;22.37;14.90;;;;;;;5.97;92.16;101008.09;5049657;28;20218;-74
2022/11/29 09:37:49;;;;;;;24.00;15.27;;;;;;;5.97;92.40;101012.53;5043761;28;20211;-74
2022/11/29 09:40:20;;;;;;;25.27;15.57;;;;;;;5.97;92.51;101008.09;5042963;28;20228;-74
2022/11/29 09:42:58;;;;;;;23.87;15.13;;;;;;;5.99;92.59;101005.38;5053872;28;20197;-73
2022/11/29 09:45:31;;;;;;;22.13;14.37;;;;;;;5.99;92.34;101008.03;5056901;28;20257;-75
2022/11/29 09:48:17;;;;;;;26.33;16.83;;;;;;;5.99;92.21;101011.53;5040990;28;20201;-74
2022/11/29 09:50:51;;;;;;;24.40;16.43;;;;;;;6.02;92.17;101018.50;5055710;22;20224;-75
2022/11/29 09:53:33;;;;;;;22.93;15.37;;;;;;;6.02;92.12;101021.16;5047248;28;20202;-75
2022/11/29 09:56:11;;;;;;;24.13;15.50;;;;;;;6.04;92.06;101024.59;5034993;28;20586;-75
2022/11/29 09:58:43;;;;;;;26.13;16.33;;;;;;;6.04;92.03;101014.88;5042750;28;20571;-75
2022/11/29 10:01:23;;;;;;;27.33;17.27;;;;;;;6.04;92.26;101029.88;5042592;28;20253;-75
2022/11/29 10:03:54;;;;;;;29.10;17.43;;;;;;;6.05;92.42;101027.19;5039884;28;20205;-75
2022/11/29 10:06:25;;;;;;;25.70;17.07;;;;;;;6.06;92.51;101026.25;5022959;28;20218;-75
2022/11/29 10:08:56;;;;;;;26.53;17.67;;;;;;;6.06;92.88;101028.91;5029150;28;20203;-75
2022/11/29 10:11:28;;;;;;;31.40;17.70;;;;;;;6.10;92.40;101032.25;5033967;28;20224;-74
2022/11/29 10:14:00;;;;;;;26.60;16.67;;;;;;;6.12;92.93;101030.44;5030329;28;20204;-75
2022/11/29 10:16:39;;;;;;;29.60;18.33;;;;;;;6.12;92.98;101033.94;5031327;28;20201;-75
2022/11/29 10:19:14;;;;;;;30.13;18.30;;;;;;;6.14;92.60;101026.81;5034715;28;20214;-75
2022/11/29 10:21:46;;;;;;;30.40;18.03;;;;;;;6.15;92.81;101025.88;5036182;28;20286;-75
2022/11/29 10:24:16;;;;;;;26.33;17.63;;;;;;;6.17;92.54;101028.47;5032588;28;20668;-75
2022/11/29 10:26:43;;;;;;;26.97;17.67;;;;;;;6.20;92.85;101026.56;5032422;28;20224;-75
2022/11/29 10:29:14;;;;;;;26.60;18.57;;;;;;;6.23;93.09;101028.25;5029667;28;20213;-75
2022/11/29 10:31:43;;;;;;;29.00;17.50;;;;;;;6.24;93.10;101020.25;5029266;28;20249;-75
2022/11/29 10:34:15;;;;;;;26.07;17.70;;;;;;;6.28;93.17;101032.41;5039037;28;20228;-75
2022/11/29 10:36:44;;;;;;;31.00;18.90;;;;;;;6.30;93.09;101023.56;5041378;28;20578;-75
2022/11/29 10:39:17;;;;;;;28.77;17.83;;;;;;;6.30;93.01;101024.41;5029386;28;20221;-75
2022/11/29 10:41:43;;;;;;;28.70;18.30;;;;;;;6.31;92.51;101027.94;5034139;28;20243;-77
2022/11/29 10:44:13;;;;;;;27.47;18.60;;;;;;;6.32;92.63;101019.06;5036182;28;20221;-75
2022/11/29 10:46:40;;;;;;;28.43;18.70;;;;;;;6.32;92.73;101021.72;5030804;28;20234;-75
2022/11/29 10:49:13;;;;;;;29.47;18.60;;;;;;;6.37;92.97;101025.03;5032440;28;20213;-75
2022/11/29 10:51:40;;;;;;;29.43;18.83;;;;;;;6.38;93.08;101024.13;5021852;28;20261;-75
2022/11/29 10:54:24;;;;;;;30.53;18.50;;;;;;;6.40;93.00;101032.88;5030515;28;20205;-75
2022/11/29 10:56:51;;;;;;;30.33;18.23;;;;;;;6.41;93.12;101030.16;5037388;28;20210;-75
2022/11/29 10:59:23;;;;;;;26.80;17.60;;;;;;;6.43;93.30;101028.31;5037280;28;20226;-75
2022/11/29 11:01:51;;;;;;;30.87;16.87;;;;;;;6.46;92.86;101027.31;5044199;28;20236;-75
2022/11/29 11:04:26;;;;;;;27.53;18.17;;;;;;;6.47;92.58;101034.31;5035819;28;20305;-75
2022/11/29 11:06:55;;;;;;;28.73;18.23;;;;;;;6.50;92.48;101031.56;5038073;28;20212;-76
2022/11/29 11:09:27;;;;;;;26.83;17.97;;;;;;;6.51;92.36;101034.16;5034536;28;20199;-76
2022/11/29 11:11:56;;;;;;;31.07;18.77;;;;;;;6.53;92.67;101034.94;5036596;28;20233;-75
2022/11/29 11:14:25;;;;;;;29.27;17.97;;;;;;;6.56;92.69;101031.31;5025599;28;20210;-75
2022/11/29 11:16:52;;;;;;;26.63;17.87;;;;;;;6.58;92.35;101029.47;5031076;28;20206;-75
2022/11/29 11:19:27;;;;;;;29.60;17.60;;;;;;;6.61;92.41;101029.34;5031791;28;20223;-75
2022/11/29 11:21:55;;;;;;;32.57;19.67;;;;;;;6.65;92.90;101035.34;5037136;28;20220;-76
2022/11/29 11:24:25;;;;;;;34.93;18.33;;;;;;;6.67;92.55;101034.38;5038379;28;20679;-75
2022/11/29 11:26:51;;;;;;;30.23;17.43;;;;;;;6.68;92.23;101030.81;5038988;28;20202;-75
2022/11/29 11:29:21;;;;;;;29.80;18.43;;;;;;;6.70;92.19;101034.25;5029989;28;20213;-75
2022/11/29 11:31:53;;;;;;;30.97;18.20;;;;;;;6.70;92.43;101034.25;5031971;28;20229;-75
2022/11/29 11:34:28;;;;;;;32.27;19.17;;;;;;;6.70;92.13;101034.25;5030177;28;20206;-75
2022/11/29 11:37:17;;;;;;;30.03;18.23;;;;;;;6.70;91.71;101034.25;5030961;28;20405;-75
2022/11/29 11:39:45;;;;;;;31.80;19.37;;;;;;;6.70;91.99;101046.63;5031817;28;20807;-75
2022/11/29 11:45:00;;;;;;;29.33;19.07;;;;;;;6.68;91.73;101041.41;5033219;28;20678;-74
2022/11/29 11:47:29;;;;;;;33.23;19.07;;;;;;;6.68;92.31;101046.69;5029593;28;20198;-74
2022/11/29 11:50:06;;;;;;;28.23;18.30;;;;;;;6.66;92.28;101053.81;5036141;28;20217;-75
2022/11/29 11:52:41;;;;;;;28.00;18.53;;;;;;;6.68;92.10;101053.75;5038140;28;20264;-74
2022/11/29 11:55:27;;;;;;;33.13;19.07;;;;;;;6.66;91.76;101050.31;5041187;28;20581;-75
2022/11/29 11:57:59;;;;;;;30.30;19.67;;;;;;;6.66;91.89;101052.97;5035001;28;20210;-74